Current Conditions
Partly Cloudy
Conditions



Pressure
1005.92 (hPa) - 29.7 (inHG)
Visibility

10.0 (km) - 6.2 (miles)
   Temperature
18  °C
64°F
14  °C
Dewpoint
78  %
 Humidity
   Wind Speed
9  kts
10  mph
16  km/h
4.5  m/s
   Wind Direction
 60°
East North
East
   Airport Data
LKTB
Location Brno-Tuřany 61 km (37.91 mi)
Metar :LKTB 070600Z 06009KT 9999 FEW016 18/14 Q1006 NOSIG
Sun 7th June 07:00 am
   Raw Metar Info
Raw METAR is the most common format in the world for the transmission of observational weather data. It is highly standardized through the International Civil Aviation Organization (ICAO), which allows it to be understood throughout most of the world.
   API Info
Data Provided by
https://www.checkwx.com/weather/LKTB
   © Info
CSS/SVG/PHP scripts were developed by weather34.com for use in the weather34 template © 2015-2020

Guide Info provided by Metar-Wikipedia